<?xml version="1.0" encoding="UTF-8" standalone="no" ?>
<gpx xmlns="http://www.topografix.com/GPX/1/1" xmlns:xsi="http://www.w3.org/2001/XMLSchema-instance" xsi:schemaLocation="http://www.topografix.com/GPX/1/1 http://www.topografix.com/GPX/1/1/gpx.xsd" version="1.1" creator="VisuGPX - https://www.visugpx.com">
  <metadata>
    <name>couvertoirade-le cros-le caylar</name>
  </metadata>
  <wpt lat="43.89171" lon="3.31631">
    <ele>815</ele>
    <name><![CDATA[Point de passage 1]]></name>
    <type><![CDATA[GENERIC]]></type>
  </wpt>
  <wpt lat="43.89172" lon="3.31631">
    <ele>815</ele>
    <name><![CDATA[Point de passage 2]]></name>
    <type><![CDATA[GENERIC]]></type>
  </wpt>
  <trk>
    <name><![CDATA[couvertoirade-le cros-le caylar]]></name>
    <trkseg>
      <trkpt lat="43.89171" lon="3.31631">
        <ele>815</ele>
        <time>2026-05-28T14:51:59.000Z</time>
      </trkpt>
      <trkpt lat="43.89193" lon="3.31624">
        <ele>814</ele>
        <time>2026-05-28T14:52:24.000Z</time>
      </trkpt>
      <trkpt lat="43.89223" lon="3.31606">
        <ele>811</ele>
        <time>2026-05-28T14:53:02.000Z</time>
      </trkpt>
      <trkpt lat="43.89245" lon="3.31599">
        <ele>810</ele>
        <time>2026-05-28T14:53:28.000Z</time>
      </trkpt>
      <trkpt lat="43.89341" lon="3.31586">
        <ele>803</ele>
        <time>2026-05-28T14:55:19.000Z</time>
      </trkpt>
      <trkpt lat="43.89366" lon="3.3157">
        <ele>802</ele>
        <time>2026-05-28T14:55:50.000Z</time>
      </trkpt>
      <trkpt lat="43.89416" lon="3.31564">
        <ele>799</ele>
        <time>2026-05-28T14:56:48.000Z</time>
      </trkpt>
      <trkpt lat="43.89435" lon="3.31551">
        <ele>798</ele>
        <time>2026-05-28T14:57:12.000Z</time>
      </trkpt>
      <trkpt lat="43.89488" lon="3.31548">
        <ele>795</ele>
        <time>2026-05-28T14:58:12.000Z</time>
      </trkpt>
      <trkpt lat="43.8952" lon="3.31556">
        <ele>793</ele>
        <time>2026-05-28T14:58:49.000Z</time>
      </trkpt>
      <trkpt lat="43.8959" lon="3.316">
        <ele>789</ele>
        <time>2026-05-28T15:00:17.000Z</time>
      </trkpt>
      <trkpt lat="43.89672" lon="3.31598">
        <ele>790</ele>
        <time>2026-05-28T15:02:01.000Z</time>
      </trkpt>
      <trkpt lat="43.89684" lon="3.31587">
        <ele>791</ele>
        <time>2026-05-28T15:02:28.000Z</time>
      </trkpt>
      <trkpt lat="43.89695" lon="3.31587">
        <ele>792</ele>
        <time>2026-05-28T15:02:50.000Z</time>
      </trkpt>
      <trkpt lat="43.89718" lon="3.31592">
        <ele>793</ele>
        <time>2026-05-28T15:03:28.000Z</time>
      </trkpt>
      <trkpt lat="43.89829" lon="3.31635">
        <ele>795</ele>
        <time>2026-05-28T15:06:00.000Z</time>
      </trkpt>
      <trkpt lat="43.89846" lon="3.31647">
        <ele>796</ele>
        <time>2026-05-28T15:06:32.000Z</time>
      </trkpt>
      <trkpt lat="43.89928" lon="3.31728">
        <ele>802</ele>
        <time>2026-05-28T15:09:29.000Z</time>
      </trkpt>
      <trkpt lat="43.89972" lon="3.31731">
        <ele>802</ele>
        <time>2026-05-28T15:10:20.000Z</time>
      </trkpt>
      <trkpt lat="43.89986" lon="3.31722">
        <ele>803</ele>
        <time>2026-05-28T15:10:47.000Z</time>
      </trkpt>
      <trkpt lat="43.90016" lon="3.31711">
        <ele>804</ele>
        <time>2026-05-28T15:11:33.000Z</time>
      </trkpt>
      <trkpt lat="43.90035" lon="3.31715">
        <ele>805</ele>
        <time>2026-05-28T15:12:06.000Z</time>
      </trkpt>
      <trkpt lat="43.90082" lon="3.31733">
        <ele>806</ele>
        <time>2026-05-28T15:13:12.000Z</time>
      </trkpt>
      <trkpt lat="43.90104" lon="3.31752">
        <ele>809</ele>
        <time>2026-05-28T15:14:13.000Z</time>
      </trkpt>
      <trkpt lat="43.90115" lon="3.31748">
        <ele>810</ele>
        <time>2026-05-28T15:14:36.000Z</time>
      </trkpt>
      <trkpt lat="43.90135" lon="3.31753">
        <ele>813</ele>
        <time>2026-05-28T15:15:31.000Z</time>
      </trkpt>
      <trkpt lat="43.90253" lon="3.31809">
        <ele>823</ele>
        <time>2026-05-28T15:19:36.000Z</time>
      </trkpt>
      <trkpt lat="43.90342" lon="3.31811">
        <ele>827</ele>
        <time>2026-05-28T15:21:59.000Z</time>
      </trkpt>
      <trkpt lat="43.90432" lon="3.31798">
        <ele>822</ele>
        <time>2026-05-28T15:23:43.000Z</time>
      </trkpt>
      <trkpt lat="43.90509" lon="3.3182">
        <ele>813</ele>
        <time>2026-05-28T15:25:12.000Z</time>
      </trkpt>
      <trkpt lat="43.90609" lon="3.31825">
        <ele>804</ele>
        <time>2026-05-28T15:27:07.000Z</time>
      </trkpt>
      <trkpt lat="43.90631" lon="3.31822">
        <ele>802</ele>
        <time>2026-05-28T15:27:32.000Z</time>
      </trkpt>
      <trkpt lat="43.90659" lon="3.31796">
        <ele>798</ele>
        <time>2026-05-28T15:28:11.000Z</time>
      </trkpt>
      <trkpt lat="43.90684" lon="3.31789">
        <ele>797</ele>
        <time>2026-05-28T15:28:40.000Z</time>
      </trkpt>
      <trkpt lat="43.90707" lon="3.3179">
        <ele>796</ele>
        <time>2026-05-28T15:29:07.000Z</time>
      </trkpt>
      <trkpt lat="43.90722" lon="3.31781">
        <ele>795</ele>
        <time>2026-05-28T15:29:25.000Z</time>
      </trkpt>
      <trkpt lat="43.90751" lon="3.31738">
        <ele>793</ele>
        <time>2026-05-28T15:30:14.000Z</time>
      </trkpt>
      <trkpt lat="43.90808" lon="3.31678">
        <ele>791</ele>
        <time>2026-05-28T15:31:36.000Z</time>
      </trkpt>
      <trkpt lat="43.90838" lon="3.31635">
        <ele>788</ele>
        <time>2026-05-28T15:32:25.000Z</time>
      </trkpt>
      <trkpt lat="43.90844" lon="3.3162">
        <ele>787</ele>
        <time>2026-05-28T15:32:39.000Z</time>
      </trkpt>
      <trkpt lat="43.90925" lon="3.31596">
        <ele>779</ele>
        <time>2026-05-28T15:34:14.000Z</time>
      </trkpt>
      <trkpt lat="43.90945" lon="3.316">
        <ele>778</ele>
        <time>2026-05-28T15:34:37.000Z</time>
      </trkpt>
      <trkpt lat="43.90964" lon="3.31607">
        <ele>776</ele>
        <time>2026-05-28T15:34:59.000Z</time>
      </trkpt>
      <trkpt lat="43.90979" lon="3.31619">
        <ele>775</ele>
        <time>2026-05-28T15:35:19.000Z</time>
      </trkpt>
      <trkpt lat="43.9102" lon="3.31672">
        <ele>770</ele>
        <time>2026-05-28T15:36:23.000Z</time>
      </trkpt>
      <trkpt lat="43.9103" lon="3.31677">
        <ele>769</ele>
        <time>2026-05-28T15:36:35.000Z</time>
      </trkpt>
      <trkpt lat="43.91054" lon="3.31674">
        <ele>766</ele>
        <time>2026-05-28T15:37:03.000Z</time>
      </trkpt>
      <trkpt lat="43.91056" lon="3.31681">
        <ele>766</ele>
        <time>2026-05-28T15:37:09.000Z</time>
      </trkpt>
      <trkpt lat="43.91063" lon="3.31689">
        <ele>765</ele>
        <time>2026-05-28T15:37:20.000Z</time>
      </trkpt>
      <trkpt lat="43.91117" lon="3.31724">
        <ele>765</ele>
        <time>2026-05-28T15:38:28.000Z</time>
      </trkpt>
      <trkpt lat="43.91127" lon="3.31721">
        <ele>765</ele>
        <time>2026-05-28T15:38:39.000Z</time>
      </trkpt>
      <trkpt lat="43.91139" lon="3.31698">
        <ele>766</ele>
        <time>2026-05-28T15:39:13.000Z</time>
      </trkpt>
      <trkpt lat="43.91172" lon="3.31704">
        <ele>771</ele>
        <time>2026-05-28T15:40:43.000Z</time>
      </trkpt>
      <trkpt lat="43.91166" lon="3.31714">
        <ele>771</ele>
        <time>2026-05-28T15:40:54.000Z</time>
      </trkpt>
      <trkpt lat="43.91172" lon="3.31704">
        <ele>771</ele>
        <time>2026-05-28T15:41:05.000Z</time>
      </trkpt>
      <trkpt lat="43.91181" lon="3.31709">
        <ele>772</ele>
        <time>2026-05-28T15:41:27.000Z</time>
      </trkpt>
      <trkpt lat="43.91192" lon="3.31709">
        <ele>773</ele>
        <time>2026-05-28T15:41:50.000Z</time>
      </trkpt>
      <trkpt lat="43.91209" lon="3.31685">
        <ele>773</ele>
        <time>2026-05-28T15:42:18.000Z</time>
      </trkpt>
      <trkpt lat="43.91246" lon="3.31646">
        <ele>775</ele>
        <time>2026-05-28T15:43:32.000Z</time>
      </trkpt>
      <trkpt lat="43.91257" lon="3.31651">
        <ele>776</ele>
        <time>2026-05-28T15:43:57.000Z</time>
      </trkpt>
      <trkpt lat="43.9126" lon="3.31668">
        <ele>776</ele>
        <time>2026-05-28T15:44:11.000Z</time>
      </trkpt>
      <trkpt lat="43.91277" lon="3.31673">
        <ele>777</ele>
        <time>2026-05-28T15:44:41.000Z</time>
      </trkpt>
      <trkpt lat="43.91279" lon="3.31685">
        <ele>776</ele>
        <time>2026-05-28T15:44:51.000Z</time>
      </trkpt>
      <trkpt lat="43.9127" lon="3.31695">
        <ele>776</ele>
        <time>2026-05-28T15:45:04.000Z</time>
      </trkpt>
      <trkpt lat="43.91266" lon="3.31727">
        <ele>776</ele>
        <time>2026-05-28T15:45:31.000Z</time>
      </trkpt>
      <trkpt lat="43.91262" lon="3.31735">
        <ele>776</ele>
        <time>2026-05-28T15:45:39.000Z</time>
      </trkpt>
      <trkpt lat="43.91252" lon="3.31745">
        <ele>777</ele>
        <time>2026-05-28T15:46:04.000Z</time>
      </trkpt>
      <trkpt lat="43.91236" lon="3.31752">
        <ele>777</ele>
        <time>2026-05-28T15:46:22.000Z</time>
      </trkpt>
      <trkpt lat="43.91235" lon="3.31742">
        <ele>776</ele>
        <time>2026-05-28T15:46:31.000Z</time>
      </trkpt>
      <trkpt lat="43.91211" lon="3.31741">
        <ele>775</ele>
        <time>2026-05-28T15:46:58.000Z</time>
      </trkpt>
      <trkpt lat="43.91206" lon="3.3174">
        <ele>775</ele>
        <time>2026-05-28T15:47:03.000Z</time>
      </trkpt>
      <trkpt lat="43.91192" lon="3.31709">
        <ele>773</ele>
        <time>2026-05-28T15:47:34.000Z</time>
      </trkpt>
      <trkpt lat="43.91181" lon="3.31709">
        <ele>772</ele>
        <time>2026-05-28T15:47:46.000Z</time>
      </trkpt>
      <trkpt lat="43.91172" lon="3.31704">
        <ele>771</ele>
        <time>2026-05-28T15:47:57.000Z</time>
      </trkpt>
      <trkpt lat="43.91113" lon="3.31822">
        <ele>767</ele>
        <time>2026-05-28T15:49:56.000Z</time>
      </trkpt>
      <trkpt lat="43.91068" lon="3.31925">
        <ele>768</ele>
        <time>2026-05-28T15:51:45.000Z</time>
      </trkpt>
      <trkpt lat="43.91034" lon="3.31984">
        <ele>768</ele>
        <time>2026-05-28T15:52:47.000Z</time>
      </trkpt>
      <trkpt lat="43.90997" lon="3.31981">
        <ele>769</ele>
        <time>2026-05-28T15:53:39.000Z</time>
      </trkpt>
      <trkpt lat="43.90974" lon="3.31971">
        <ele>769</ele>
        <time>2026-05-28T15:54:06.000Z</time>
      </trkpt>
      <trkpt lat="43.90931" lon="3.31943">
        <ele>770</ele>
        <time>2026-05-28T15:55:11.000Z</time>
      </trkpt>
      <trkpt lat="43.90921" lon="3.31939">
        <ele>770</ele>
        <time>2026-05-28T15:55:23.000Z</time>
      </trkpt>
      <trkpt lat="43.90906" lon="3.31953">
        <ele>771</ele>
        <time>2026-05-28T15:55:54.000Z</time>
      </trkpt>
      <trkpt lat="43.90884" lon="3.31981">
        <ele>772</ele>
        <time>2026-05-28T15:56:39.000Z</time>
      </trkpt>
      <trkpt lat="43.90864" lon="3.32013">
        <ele>774</ele>
        <time>2026-05-28T15:57:35.000Z</time>
      </trkpt>
      <trkpt lat="43.90847" lon="3.32053">
        <ele>775</ele>
        <time>2026-05-28T15:58:23.000Z</time>
      </trkpt>
      <trkpt lat="43.90754" lon="3.32235">
        <ele>787</ele>
        <time>2026-05-28T16:03:30.000Z</time>
      </trkpt>
      <trkpt lat="43.90725" lon="3.32307">
        <ele>790</ele>
        <time>2026-05-28T16:05:09.000Z</time>
      </trkpt>
      <trkpt lat="43.90713" lon="3.3235">
        <ele>792</ele>
        <time>2026-05-28T16:06:08.000Z</time>
      </trkpt>
      <trkpt lat="43.90712" lon="3.32372">
        <ele>794</ele>
        <time>2026-05-28T16:06:46.000Z</time>
      </trkpt>
      <trkpt lat="43.90719" lon="3.3241">
        <ele>796</ele>
        <time>2026-05-28T16:07:39.000Z</time>
      </trkpt>
      <trkpt lat="43.90715" lon="3.32428">
        <ele>797</ele>
        <time>2026-05-28T16:08:05.000Z</time>
      </trkpt>
      <trkpt lat="43.90679" lon="3.32483">
        <ele>799</ele>
        <time>2026-05-28T16:09:27.000Z</time>
      </trkpt>
      <trkpt lat="43.90662" lon="3.32519">
        <ele>799</ele>
        <time>2026-05-28T16:10:02.000Z</time>
      </trkpt>
      <trkpt lat="43.90651" lon="3.32532">
        <ele>798</ele>
        <time>2026-05-28T16:10:19.000Z</time>
      </trkpt>
      <trkpt lat="43.90638" lon="3.32539">
        <ele>797</ele>
        <time>2026-05-28T16:10:35.000Z</time>
      </trkpt>
      <trkpt lat="43.90625" lon="3.32538">
        <ele>797</ele>
        <time>2026-05-28T16:10:50.000Z</time>
      </trkpt>
      <trkpt lat="43.90613" lon="3.3253">
        <ele>797</ele>
        <time>2026-05-28T16:11:05.000Z</time>
      </trkpt>
      <trkpt lat="43.90599" lon="3.32508">
        <ele>797</ele>
        <time>2026-05-28T16:11:30.000Z</time>
      </trkpt>
      <trkpt lat="43.90571" lon="3.32496">
        <ele>795</ele>
        <time>2026-05-28T16:12:03.000Z</time>
      </trkpt>
      <trkpt lat="43.90555" lon="3.32497">
        <ele>795</ele>
        <time>2026-05-28T16:12:21.000Z</time>
      </trkpt>
      <trkpt lat="43.9054" lon="3.32507">
        <ele>795</ele>
        <time>2026-05-28T16:12:40.000Z</time>
      </trkpt>
      <trkpt lat="43.9053" lon="3.32525">
        <ele>795</ele>
        <time>2026-05-28T16:12:59.000Z</time>
      </trkpt>
      <trkpt lat="43.90515" lon="3.32535">
        <ele>795</ele>
        <time>2026-05-28T16:13:18.000Z</time>
      </trkpt>
      <trkpt lat="43.90481" lon="3.32529">
        <ele>795</ele>
        <time>2026-05-28T16:13:57.000Z</time>
      </trkpt>
      <trkpt lat="43.90454" lon="3.32536">
        <ele>795</ele>
        <time>2026-05-28T16:14:28.000Z</time>
      </trkpt>
      <trkpt lat="43.90412" lon="3.32565">
        <ele>793</ele>
        <time>2026-05-28T16:15:22.000Z</time>
      </trkpt>
      <trkpt lat="43.90376" lon="3.32605">
        <ele>794</ele>
        <time>2026-05-28T16:16:25.000Z</time>
      </trkpt>
      <trkpt lat="43.90369" lon="3.32607">
        <ele>794</ele>
        <time>2026-05-28T16:16:34.000Z</time>
      </trkpt>
      <trkpt lat="43.90337" lon="3.32612">
        <ele>793</ele>
        <time>2026-05-28T16:17:10.000Z</time>
      </trkpt>
      <trkpt lat="43.90273" lon="3.326">
        <ele>792</ele>
        <time>2026-05-28T16:18:24.000Z</time>
      </trkpt>
      <trkpt lat="43.90187" lon="3.32596">
        <ele>788</ele>
        <time>2026-05-28T16:20:03.000Z</time>
      </trkpt>
      <trkpt lat="43.90171" lon="3.326">
        <ele>787</ele>
        <time>2026-05-28T16:20:21.000Z</time>
      </trkpt>
      <trkpt lat="43.90147" lon="3.32619">
        <ele>786</ele>
        <time>2026-05-28T16:20:53.000Z</time>
      </trkpt>
      <trkpt lat="43.90122" lon="3.3263">
        <ele>784</ele>
        <time>2026-05-28T16:21:23.000Z</time>
      </trkpt>
      <trkpt lat="43.90024" lon="3.32641">
        <ele>779</ele>
        <time>2026-05-28T16:23:15.000Z</time>
      </trkpt>
      <trkpt lat="43.89983" lon="3.32633">
        <ele>777</ele>
        <time>2026-05-28T16:24:02.000Z</time>
      </trkpt>
      <trkpt lat="43.89959" lon="3.3264">
        <ele>775</ele>
        <time>2026-05-28T16:24:31.000Z</time>
      </trkpt>
      <trkpt lat="43.89938" lon="3.32653">
        <ele>774</ele>
        <time>2026-05-28T16:24:57.000Z</time>
      </trkpt>
      <trkpt lat="43.89928" lon="3.32671">
        <ele>774</ele>
        <time>2026-05-28T16:25:16.000Z</time>
      </trkpt>
      <trkpt lat="43.89919" lon="3.32707">
        <ele>774</ele>
        <time>2026-05-28T16:25:48.000Z</time>
      </trkpt>
      <trkpt lat="43.8992" lon="3.32722">
        <ele>775</ele>
        <time>2026-05-28T16:26:10.000Z</time>
      </trkpt>
      <trkpt lat="43.89892" lon="3.32759">
        <ele>774</ele>
        <time>2026-05-28T16:26:54.000Z</time>
      </trkpt>
      <trkpt lat="43.89845" lon="3.32802">
        <ele>769</ele>
        <time>2026-05-28T16:27:59.000Z</time>
      </trkpt>
      <trkpt lat="43.89818" lon="3.32833">
        <ele>768</ele>
        <time>2026-05-28T16:28:39.000Z</time>
      </trkpt>
      <trkpt lat="43.89801" lon="3.32863">
        <ele>767</ele>
        <time>2026-05-28T16:29:10.000Z</time>
      </trkpt>
      <trkpt lat="43.89719" lon="3.32978">
        <ele>765</ele>
        <time>2026-05-28T16:31:24.000Z</time>
      </trkpt>
      <trkpt lat="43.89681" lon="3.3302">
        <ele>764</ele>
        <time>2026-05-28T16:32:19.000Z</time>
      </trkpt>
      <trkpt lat="43.89658" lon="3.33051">
        <ele>763</ele>
        <time>2026-05-28T16:32:56.000Z</time>
      </trkpt>
      <trkpt lat="43.89645" lon="3.33078">
        <ele>763</ele>
        <time>2026-05-28T16:33:23.000Z</time>
      </trkpt>
      <trkpt lat="43.89596" lon="3.33225">
        <ele>760</ele>
        <time>2026-05-28T16:35:37.000Z</time>
      </trkpt>
      <trkpt lat="43.89565" lon="3.33303">
        <ele>758</ele>
        <time>2026-05-28T16:36:51.000Z</time>
      </trkpt>
      <trkpt lat="43.89555" lon="3.33322">
        <ele>758</ele>
        <time>2026-05-28T16:37:10.000Z</time>
      </trkpt>
      <trkpt lat="43.89529" lon="3.33338">
        <ele>757</ele>
        <time>2026-05-28T16:37:42.000Z</time>
      </trkpt>
      <trkpt lat="43.89475" lon="3.33402">
        <ele>757</ele>
        <time>2026-05-28T16:39:03.000Z</time>
      </trkpt>
      <trkpt lat="43.89433" lon="3.33439">
        <ele>758</ele>
        <time>2026-05-28T16:40:11.000Z</time>
      </trkpt>
      <trkpt lat="43.89407" lon="3.33469">
        <ele>758</ele>
        <time>2026-05-28T16:40:50.000Z</time>
      </trkpt>
      <trkpt lat="43.89395" lon="3.33489">
        <ele>758</ele>
        <time>2026-05-28T16:41:11.000Z</time>
      </trkpt>
      <trkpt lat="43.89386" lon="3.33521">
        <ele>759</ele>
        <time>2026-05-28T16:41:50.000Z</time>
      </trkpt>
      <trkpt lat="43.89382" lon="3.33527">
        <ele>759</ele>
        <time>2026-05-28T16:41:57.000Z</time>
      </trkpt>
      <trkpt lat="43.89346" lon="3.33559">
        <ele>760</ele>
        <time>2026-05-28T16:42:56.000Z</time>
      </trkpt>
      <trkpt lat="43.89331" lon="3.33568">
        <ele>760</ele>
        <time>2026-05-28T16:43:14.000Z</time>
      </trkpt>
      <trkpt lat="43.89321" lon="3.33568">
        <ele>760</ele>
        <time>2026-05-28T16:43:26.000Z</time>
      </trkpt>
      <trkpt lat="43.89303" lon="3.33575">
        <ele>759</ele>
        <time>2026-05-28T16:43:47.000Z</time>
      </trkpt>
      <trkpt lat="43.8926" lon="3.33607">
        <ele>758</ele>
        <time>2026-05-28T16:44:43.000Z</time>
      </trkpt>
      <trkpt lat="43.89204" lon="3.33687">
        <ele>763</ele>
        <time>2026-05-28T16:47:06.000Z</time>
      </trkpt>
      <trkpt lat="43.89142" lon="3.33806">
        <ele>762</ele>
        <time>2026-05-28T16:49:07.000Z</time>
      </trkpt>
      <trkpt lat="43.89088" lon="3.3388">
        <ele>766</ele>
        <time>2026-05-28T16:51:15.000Z</time>
      </trkpt>
      <trkpt lat="43.89075" lon="3.33897">
        <ele>768</ele>
        <time>2026-05-28T16:51:56.000Z</time>
      </trkpt>
      <trkpt lat="43.89059" lon="3.33934">
        <ele>771</ele>
        <time>2026-05-28T16:53:03.000Z</time>
      </trkpt>
      <trkpt lat="43.89013" lon="3.34011">
        <ele>777</ele>
        <time>2026-05-28T16:55:28.000Z</time>
      </trkpt>
      <trkpt lat="43.88984" lon="3.34069">
        <ele>780</ele>
        <time>2026-05-28T16:56:58.000Z</time>
      </trkpt>
      <trkpt lat="43.88945" lon="3.34128">
        <ele>780</ele>
        <time>2026-05-28T16:58:04.000Z</time>
      </trkpt>
      <trkpt lat="43.88923" lon="3.34176">
        <ele>778</ele>
        <time>2026-05-28T16:58:51.000Z</time>
      </trkpt>
      <trkpt lat="43.88919" lon="3.34201">
        <ele>776</ele>
        <time>2026-05-28T16:59:12.000Z</time>
      </trkpt>
      <trkpt lat="43.88927" lon="3.34254">
        <ele>774</ele>
        <time>2026-05-28T16:59:57.000Z</time>
      </trkpt>
      <trkpt lat="43.88924" lon="3.34271">
        <ele>773</ele>
        <time>2026-05-28T17:00:11.000Z</time>
      </trkpt>
      <trkpt lat="43.88891" lon="3.34308">
        <ele>772</ele>
        <time>2026-05-28T17:01:00.000Z</time>
      </trkpt>
      <trkpt lat="43.88827" lon="3.3435">
        <ele>771</ele>
        <time>2026-05-28T17:02:21.000Z</time>
      </trkpt>
      <trkpt lat="43.88788" lon="3.34389">
        <ele>771</ele>
        <time>2026-05-28T17:03:16.000Z</time>
      </trkpt>
      <trkpt lat="43.88745" lon="3.34444">
        <ele>771</ele>
        <time>2026-05-28T17:04:23.000Z</time>
      </trkpt>
      <trkpt lat="43.88674" lon="3.34564">
        <ele>769</ele>
        <time>2026-05-28T17:06:32.000Z</time>
      </trkpt>
      <trkpt lat="43.8863" lon="3.34604">
        <ele>768</ele>
        <time>2026-05-28T17:07:32.000Z</time>
      </trkpt>
      <trkpt lat="43.88579" lon="3.34639">
        <ele>765</ele>
        <time>2026-05-28T17:08:37.000Z</time>
      </trkpt>
      <trkpt lat="43.88569" lon="3.34652">
        <ele>766</ele>
        <time>2026-05-28T17:09:03.000Z</time>
      </trkpt>
      <trkpt lat="43.88556" lon="3.34686">
        <ele>766</ele>
        <time>2026-05-28T17:09:34.000Z</time>
      </trkpt>
      <trkpt lat="43.88528" lon="3.3471">
        <ele>765</ele>
        <time>2026-05-28T17:10:11.000Z</time>
      </trkpt>
      <trkpt lat="43.88495" lon="3.34719">
        <ele>765</ele>
        <time>2026-05-28T17:10:49.000Z</time>
      </trkpt>
      <trkpt lat="43.88454" lon="3.34754">
        <ele>765</ele>
        <time>2026-05-28T17:11:45.000Z</time>
      </trkpt>
      <trkpt lat="43.88405" lon="3.34777">
        <ele>764</ele>
        <time>2026-05-28T17:12:44.000Z</time>
      </trkpt>
      <trkpt lat="43.88363" lon="3.34805">
        <ele>761</ele>
        <time>2026-05-28T17:13:37.000Z</time>
      </trkpt>
      <trkpt lat="43.88339" lon="3.34815">
        <ele>758</ele>
        <time>2026-05-28T17:14:06.000Z</time>
      </trkpt>
      <trkpt lat="43.88235" lon="3.34924">
        <ele>746</ele>
        <time>2026-05-28T17:16:34.000Z</time>
      </trkpt>
      <trkpt lat="43.88182" lon="3.34945">
        <ele>742</ele>
        <time>2026-05-28T17:17:38.000Z</time>
      </trkpt>
      <trkpt lat="43.88145" lon="3.34943">
        <ele>739</ele>
        <time>2026-05-28T17:18:20.000Z</time>
      </trkpt>
      <trkpt lat="43.88111" lon="3.34946">
        <ele>737</ele>
        <time>2026-05-28T17:19:00.000Z</time>
      </trkpt>
      <trkpt lat="43.88081" lon="3.34964">
        <ele>735</ele>
        <time>2026-05-28T17:19:37.000Z</time>
      </trkpt>
      <trkpt lat="43.88072" lon="3.34977">
        <ele>735</ele>
        <time>2026-05-28T17:19:52.000Z</time>
      </trkpt>
      <trkpt lat="43.88026" lon="3.34998">
        <ele>734</ele>
        <time>2026-05-28T17:20:47.000Z</time>
      </trkpt>
      <trkpt lat="43.87998" lon="3.35015">
        <ele>733</ele>
        <time>2026-05-28T17:21:23.000Z</time>
      </trkpt>
      <trkpt lat="43.87972" lon="3.35037">
        <ele>732</ele>
        <time>2026-05-28T17:21:58.000Z</time>
      </trkpt>
      <trkpt lat="43.87965" lon="3.3506">
        <ele>731</ele>
        <time>2026-05-28T17:22:18.000Z</time>
      </trkpt>
      <trkpt lat="43.87953" lon="3.35073">
        <ele>730</ele>
        <time>2026-05-28T17:22:36.000Z</time>
      </trkpt>
      <trkpt lat="43.87783" lon="3.35213">
        <ele>729</ele>
        <time>2026-05-28T17:26:23.000Z</time>
      </trkpt>
      <trkpt lat="43.87757" lon="3.35249">
        <ele>729</ele>
        <time>2026-05-28T17:27:04.000Z</time>
      </trkpt>
      <trkpt lat="43.87727" lon="3.35308">
        <ele>730</ele>
        <time>2026-05-28T17:28:14.000Z</time>
      </trkpt>
      <trkpt lat="43.87635" lon="3.35566">
        <ele>731</ele>
        <time>2026-05-28T17:32:22.000Z</time>
      </trkpt>
      <trkpt lat="43.87582" lon="3.35675">
        <ele>732</ele>
        <time>2026-05-28T17:34:20.000Z</time>
      </trkpt>
      <trkpt lat="43.87557" lon="3.35708">
        <ele>732</ele>
        <time>2026-05-28T17:35:00.000Z</time>
      </trkpt>
      <trkpt lat="43.87492" lon="3.35779">
        <ele>733</ele>
        <time>2026-05-28T17:36:45.000Z</time>
      </trkpt>
      <trkpt lat="43.87445" lon="3.35835">
        <ele>732</ele>
        <time>2026-05-28T17:37:56.000Z</time>
      </trkpt>
      <trkpt lat="43.87424" lon="3.35868">
        <ele>730</ele>
        <time>2026-05-28T17:38:32.000Z</time>
      </trkpt>
      <trkpt lat="43.87398" lon="3.35943">
        <ele>726</ele>
        <time>2026-05-28T17:39:41.000Z</time>
      </trkpt>
      <trkpt lat="43.87386" lon="3.35963">
        <ele>724</ele>
        <time>2026-05-28T17:40:02.000Z</time>
      </trkpt>
      <trkpt lat="43.87341" lon="3.36002">
        <ele>720</ele>
        <time>2026-05-28T17:41:03.000Z</time>
      </trkpt>
      <trkpt lat="43.87309" lon="3.36037">
        <ele>717</ele>
        <time>2026-05-28T17:41:49.000Z</time>
      </trkpt>
      <trkpt lat="43.87191" lon="3.36279">
        <ele>706</ele>
        <time>2026-05-28T17:45:51.000Z</time>
      </trkpt>
      <trkpt lat="43.87126" lon="3.36342">
        <ele>707</ele>
        <time>2026-05-28T17:47:32.000Z</time>
      </trkpt>
      <trkpt lat="43.87073" lon="3.36386">
        <ele>708</ele>
        <time>2026-05-28T17:48:53.000Z</time>
      </trkpt>
      <trkpt lat="43.87064" lon="3.36398">
        <ele>708</ele>
        <time>2026-05-28T17:49:07.000Z</time>
      </trkpt>
      <trkpt lat="43.87019" lon="3.36498">
        <ele>709</ele>
        <time>2026-05-28T17:50:55.000Z</time>
      </trkpt>
      <trkpt lat="43.87009" lon="3.36503">
        <ele>709</ele>
        <time>2026-05-28T17:51:07.000Z</time>
      </trkpt>
      <trkpt lat="43.86988" lon="3.365">
        <ele>709</ele>
        <time>2026-05-28T17:51:31.000Z</time>
      </trkpt>
      <trkpt lat="43.86968" lon="3.36504">
        <ele>710</ele>
        <time>2026-05-28T17:52:04.000Z</time>
      </trkpt>
      <trkpt lat="43.86949" lon="3.36515">
        <ele>710</ele>
        <time>2026-05-28T17:52:27.000Z</time>
      </trkpt>
      <trkpt lat="43.86939" lon="3.36519">
        <ele>710</ele>
        <time>2026-05-28T17:52:39.000Z</time>
      </trkpt>
      <trkpt lat="43.86925" lon="3.36509">
        <ele>711</ele>
        <time>2026-05-28T17:53:08.000Z</time>
      </trkpt>
      <trkpt lat="43.86922" lon="3.36501">
        <ele>712</ele>
        <time>2026-05-28T17:53:26.000Z</time>
      </trkpt>
      <trkpt lat="43.86924" lon="3.36473">
        <ele>711</ele>
        <time>2026-05-28T17:53:49.000Z</time>
      </trkpt>
      <trkpt lat="43.86913" lon="3.36463">
        <ele>710</ele>
        <time>2026-05-28T17:54:05.000Z</time>
      </trkpt>
      <trkpt lat="43.86899" lon="3.36459">
        <ele>710</ele>
        <time>2026-05-28T17:54:21.000Z</time>
      </trkpt>
      <trkpt lat="43.8689" lon="3.36434">
        <ele>708</ele>
        <time>2026-05-28T17:54:44.000Z</time>
      </trkpt>
      <trkpt lat="43.86883" lon="3.36433">
        <ele>708</ele>
        <time>2026-05-28T17:54:52.000Z</time>
      </trkpt>
      <trkpt lat="43.86881" lon="3.36376">
        <ele>706</ele>
        <time>2026-05-28T17:55:39.000Z</time>
      </trkpt>
      <trkpt lat="43.86878" lon="3.36366">
        <ele>707</ele>
        <time>2026-05-28T17:55:58.000Z</time>
      </trkpt>
      <trkpt lat="43.86859" lon="3.36333">
        <ele>708</ele>
        <time>2026-05-28T17:56:44.000Z</time>
      </trkpt>
      <trkpt lat="43.86807" lon="3.3627">
        <ele>710</ele>
        <time>2026-05-28T17:58:23.000Z</time>
      </trkpt>
      <trkpt lat="43.86795" lon="3.3625">
        <ele>712</ele>
        <time>2026-05-28T17:59:05.000Z</time>
      </trkpt>
      <trkpt lat="43.86779" lon="3.36191">
        <ele>717</ele>
        <time>2026-05-28T18:00:48.000Z</time>
      </trkpt>
      <trkpt lat="43.86777" lon="3.36139">
        <ele>719</ele>
        <time>2026-05-28T18:01:52.000Z</time>
      </trkpt>
      <trkpt lat="43.86772" lon="3.36102">
        <ele>720</ele>
        <time>2026-05-28T18:02:33.000Z</time>
      </trkpt>
      <trkpt lat="43.8677" lon="3.3606">
        <ele>720</ele>
        <time>2026-05-28T18:03:08.000Z</time>
      </trkpt>
      <trkpt lat="43.86773" lon="3.36036">
        <ele>719</ele>
        <time>2026-05-28T18:03:28.000Z</time>
      </trkpt>
      <trkpt lat="43.86781" lon="3.36013">
        <ele>718</ele>
        <time>2026-05-28T18:03:49.000Z</time>
      </trkpt>
      <trkpt lat="43.86814" lon="3.35969">
        <ele>717</ele>
        <time>2026-05-28T18:04:41.000Z</time>
      </trkpt>
      <trkpt lat="43.86817" lon="3.35927">
        <ele>718</ele>
        <time>2026-05-28T18:05:26.000Z</time>
      </trkpt>
      <trkpt lat="43.86841" lon="3.35863">
        <ele>717</ele>
        <time>2026-05-28T18:06:26.000Z</time>
      </trkpt>
      <trkpt lat="43.86847" lon="3.3584">
        <ele>717</ele>
        <time>2026-05-28T18:06:46.000Z</time>
      </trkpt>
      <trkpt lat="43.86845" lon="3.3582">
        <ele>717</ele>
        <time>2026-05-28T18:07:02.000Z</time>
      </trkpt>
      <trkpt lat="43.86861" lon="3.35726">
        <ele>716</ele>
        <time>2026-05-28T18:08:22.000Z</time>
      </trkpt>
      <trkpt lat="43.86874" lon="3.356">
        <ele>714</ele>
        <time>2026-05-28T18:10:07.000Z</time>
      </trkpt>
      <trkpt lat="43.86874" lon="3.3559">
        <ele>714</ele>
        <time>2026-05-28T18:10:15.000Z</time>
      </trkpt>
      <trkpt lat="43.86866" lon="3.35572">
        <ele>713</ele>
        <time>2026-05-28T18:10:33.000Z</time>
      </trkpt>
      <trkpt lat="43.86865" lon="3.35563">
        <ele>713</ele>
        <time>2026-05-28T18:10:41.000Z</time>
      </trkpt>
      <trkpt lat="43.86888" lon="3.35492">
        <ele>715</ele>
        <time>2026-05-28T18:12:05.000Z</time>
      </trkpt>
      <trkpt lat="43.86891" lon="3.35464">
        <ele>715</ele>
        <time>2026-05-28T18:12:28.000Z</time>
      </trkpt>
      <trkpt lat="43.86899" lon="3.35457">
        <ele>715</ele>
        <time>2026-05-28T18:12:39.000Z</time>
      </trkpt>
      <trkpt lat="43.86904" lon="3.35457">
        <ele>715</ele>
        <time>2026-05-28T18:12:44.000Z</time>
      </trkpt>
      <trkpt lat="43.86899" lon="3.35457">
        <ele>715</ele>
        <time>2026-05-28T18:12:49.000Z</time>
      </trkpt>
      <trkpt lat="43.86891" lon="3.35464">
        <ele>715</ele>
        <time>2026-05-28T18:13:00.000Z</time>
      </trkpt>
      <trkpt lat="43.86866" lon="3.35357">
        <ele>714</ele>
        <time>2026-05-28T18:14:33.000Z</time>
      </trkpt>
      <trkpt lat="43.86823" lon="3.35205">
        <ele>713</ele>
        <time>2026-05-28T18:16:48.000Z</time>
      </trkpt>
      <trkpt lat="43.86783" lon="3.3513">
        <ele>712</ele>
        <time>2026-05-28T18:18:04.000Z</time>
      </trkpt>
      <trkpt lat="43.86743" lon="3.35031">
        <ele>712</ele>
        <time>2026-05-28T18:19:38.000Z</time>
      </trkpt>
      <trkpt lat="43.86729" lon="3.34979">
        <ele>715</ele>
        <time>2026-05-28T18:20:55.000Z</time>
      </trkpt>
      <trkpt lat="43.86718" lon="3.34954">
        <ele>716</ele>
        <time>2026-05-28T18:21:29.000Z</time>
      </trkpt>
      <trkpt lat="43.86709" lon="3.34834">
        <ele>715</ele>
        <time>2026-05-28T18:23:09.000Z</time>
      </trkpt>
      <trkpt lat="43.86703" lon="3.34831">
        <ele>715</ele>
        <time>2026-05-28T18:23:16.000Z</time>
      </trkpt>
      <trkpt lat="43.86701" lon="3.34747">
        <ele>718</ele>
        <time>2026-05-28T18:24:56.000Z</time>
      </trkpt>
      <trkpt lat="43.86728" lon="3.34698">
        <ele>723</ele>
        <time>2026-05-28T18:26:38.000Z</time>
      </trkpt>
      <trkpt lat="43.86739" lon="3.34687">
        <ele>723</ele>
        <time>2026-05-28T18:26:54.000Z</time>
      </trkpt>
      <trkpt lat="43.86752" lon="3.34658">
        <ele>725</ele>
        <time>2026-05-28T18:27:43.000Z</time>
      </trkpt>
      <trkpt lat="43.86775" lon="3.34641">
        <ele>731</ele>
        <time>2026-05-28T18:29:14.000Z</time>
      </trkpt>
      <trkpt lat="43.86782" lon="3.34618">
        <ele>733</ele>
        <time>2026-05-28T18:29:56.000Z</time>
      </trkpt>
      <trkpt lat="43.868" lon="3.34587">
        <ele>736</ele>
        <time>2026-05-28T18:31:00.000Z</time>
      </trkpt>
      <trkpt lat="43.86812" lon="3.34541">
        <ele>741</ele>
        <time>2026-05-28T18:32:32.000Z</time>
      </trkpt>
      <trkpt lat="43.86815" lon="3.34519">
        <ele>742</ele>
        <time>2026-05-28T18:33:01.000Z</time>
      </trkpt>
      <trkpt lat="43.86812" lon="3.34493">
        <ele>743</ele>
        <time>2026-05-28T18:33:33.000Z</time>
      </trkpt>
      <trkpt lat="43.86813" lon="3.34457">
        <ele>745</ele>
        <time>2026-05-28T18:34:24.000Z</time>
      </trkpt>
      <trkpt lat="43.8681" lon="3.34408">
        <ele>746</ele>
        <time>2026-05-28T18:35:15.000Z</time>
      </trkpt>
      <trkpt lat="43.86766" lon="3.34282">
        <ele>745</ele>
        <time>2026-05-28T18:37:10.000Z</time>
      </trkpt>
      <trkpt lat="43.86753" lon="3.34256">
        <ele>744</ele>
        <time>2026-05-28T18:37:37.000Z</time>
      </trkpt>
      <trkpt lat="43.86746" lon="3.34229">
        <ele>743</ele>
        <time>2026-05-28T18:38:00.000Z</time>
      </trkpt>
      <trkpt lat="43.86728" lon="3.34194">
        <ele>741</ele>
        <time>2026-05-28T18:38:36.000Z</time>
      </trkpt>
      <trkpt lat="43.86711" lon="3.3415">
        <ele>738</ele>
        <time>2026-05-28T18:39:17.000Z</time>
      </trkpt>
      <trkpt lat="43.86697" lon="3.34106">
        <ele>735</ele>
        <time>2026-05-28T18:39:57.000Z</time>
      </trkpt>
      <trkpt lat="43.86695" lon="3.34051">
        <ele>733</ele>
        <time>2026-05-28T18:40:42.000Z</time>
      </trkpt>
      <trkpt lat="43.8669" lon="3.34035">
        <ele>733</ele>
        <time>2026-05-28T18:40:57.000Z</time>
      </trkpt>
      <trkpt lat="43.86676" lon="3.34018">
        <ele>731</ele>
        <time>2026-05-28T18:41:18.000Z</time>
      </trkpt>
      <trkpt lat="43.86649" lon="3.34001">
        <ele>731</ele>
        <time>2026-05-28T18:41:53.000Z</time>
      </trkpt>
      <trkpt lat="43.86608" lon="3.3394">
        <ele>731</ele>
        <time>2026-05-28T18:43:02.000Z</time>
      </trkpt>
      <trkpt lat="43.86565" lon="3.33907">
        <ele>730</ele>
        <time>2026-05-28T18:43:57.000Z</time>
      </trkpt>
      <trkpt lat="43.86535" lon="3.33859">
        <ele>732</ele>
        <time>2026-05-28T18:45:11.000Z</time>
      </trkpt>
      <trkpt lat="43.8647" lon="3.33787">
        <ele>733</ele>
        <time>2026-05-28T18:46:56.000Z</time>
      </trkpt>
      <trkpt lat="43.86458" lon="3.33761">
        <ele>732</ele>
        <time>2026-05-28T18:47:21.000Z</time>
      </trkpt>
      <trkpt lat="43.86445" lon="3.33717">
        <ele>732</ele>
        <time>2026-05-28T18:48:00.000Z</time>
      </trkpt>
      <trkpt lat="43.86432" lon="3.33653">
        <ele>730</ele>
        <time>2026-05-28T18:48:55.000Z</time>
      </trkpt>
      <trkpt lat="43.8643" lon="3.33636">
        <ele>730</ele>
        <time>2026-05-28T18:49:09.000Z</time>
      </trkpt>
      <trkpt lat="43.86432" lon="3.33605">
        <ele>731</ele>
        <time>2026-05-28T18:49:45.000Z</time>
      </trkpt>
      <trkpt lat="43.86443" lon="3.3356">
        <ele>732</ele>
        <time>2026-05-28T18:50:34.000Z</time>
      </trkpt>
      <trkpt lat="43.86444" lon="3.33528">
        <ele>733</ele>
        <time>2026-05-28T18:51:11.000Z</time>
      </trkpt>
      <trkpt lat="43.86434" lon="3.33445">
        <ele>733</ele>
        <time>2026-05-28T18:52:20.000Z</time>
      </trkpt>
      <trkpt lat="43.86418" lon="3.33388">
        <ele>732</ele>
        <time>2026-05-28T18:53:11.000Z</time>
      </trkpt>
      <trkpt lat="43.86414" lon="3.33361">
        <ele>732</ele>
        <time>2026-05-28T18:53:34.000Z</time>
      </trkpt>
      <trkpt lat="43.86421" lon="3.33303">
        <ele>734</ele>
        <time>2026-05-28T18:54:43.000Z</time>
      </trkpt>
      <trkpt lat="43.86419" lon="3.3323">
        <ele>736</ele>
        <time>2026-05-28T18:56:04.000Z</time>
      </trkpt>
      <trkpt lat="43.86441" lon="3.33174">
        <ele>737</ele>
        <time>2026-05-28T18:57:08.000Z</time>
      </trkpt>
      <trkpt lat="43.86444" lon="3.33148">
        <ele>738</ele>
        <time>2026-05-28T18:57:40.000Z</time>
      </trkpt>
      <trkpt lat="43.86433" lon="3.33109">
        <ele>737</ele>
        <time>2026-05-28T18:58:15.000Z</time>
      </trkpt>
      <trkpt lat="43.86423" lon="3.33096">
        <ele>737</ele>
        <time>2026-05-28T18:58:31.000Z</time>
      </trkpt>
      <trkpt lat="43.86403" lon="3.33084">
        <ele>738</ele>
        <time>2026-05-28T18:59:06.000Z</time>
      </trkpt>
      <trkpt lat="43.86381" lon="3.33045">
        <ele>738</ele>
        <time>2026-05-28T18:59:46.000Z</time>
      </trkpt>
      <trkpt lat="43.86355" lon="3.32981">
        <ele>735</ele>
        <time>2026-05-28T19:00:47.000Z</time>
      </trkpt>
      <trkpt lat="43.86339" lon="3.32954">
        <ele>735</ele>
        <time>2026-05-28T19:01:16.000Z</time>
      </trkpt>
      <trkpt lat="43.86338" lon="3.32905">
        <ele>734</ele>
        <time>2026-05-28T19:01:56.000Z</time>
      </trkpt>
      <trkpt lat="43.86326" lon="3.32864">
        <ele>732</ele>
        <time>2026-05-28T19:02:32.000Z</time>
      </trkpt>
      <trkpt lat="43.86326" lon="3.32849">
        <ele>732</ele>
        <time>2026-05-28T19:02:44.000Z</time>
      </trkpt>
      <trkpt lat="43.86347" lon="3.32785">
        <ele>736</ele>
        <time>2026-05-28T19:04:24.000Z</time>
      </trkpt>
      <trkpt lat="43.86339" lon="3.32758">
        <ele>736</ele>
        <time>2026-05-28T19:04:48.000Z</time>
      </trkpt>
      <trkpt lat="43.86326" lon="3.32742">
        <ele>737</ele>
        <time>2026-05-28T19:05:18.000Z</time>
      </trkpt>
      <trkpt lat="43.86322" lon="3.32726">
        <ele>736</ele>
        <time>2026-05-28T19:05:32.000Z</time>
      </trkpt>
      <trkpt lat="43.86324" lon="3.32715">
        <ele>736</ele>
        <time>2026-05-28T19:05:41.000Z</time>
      </trkpt>
      <trkpt lat="43.86332" lon="3.32703">
        <ele>736</ele>
        <time>2026-05-28T19:05:54.000Z</time>
      </trkpt>
      <trkpt lat="43.86368" lon="3.32675">
        <ele>736</ele>
        <time>2026-05-28T19:06:42.000Z</time>
      </trkpt>
      <trkpt lat="43.86413" lon="3.3262">
        <ele>734</ele>
        <time>2026-05-28T19:07:51.000Z</time>
      </trkpt>
      <trkpt lat="43.86446" lon="3.3259">
        <ele>732</ele>
        <time>2026-05-28T19:08:36.000Z</time>
      </trkpt>
      <trkpt lat="43.86457" lon="3.32571">
        <ele>731</ele>
        <time>2026-05-28T19:08:56.000Z</time>
      </trkpt>
      <trkpt lat="43.86459" lon="3.32532">
        <ele>731</ele>
        <time>2026-05-28T19:09:28.000Z</time>
      </trkpt>
      <trkpt lat="43.86453" lon="3.32503">
        <ele>733</ele>
        <time>2026-05-28T19:10:14.000Z</time>
      </trkpt>
      <trkpt lat="43.86435" lon="3.32458">
        <ele>734</ele>
        <time>2026-05-28T19:11:07.000Z</time>
      </trkpt>
      <trkpt lat="43.86413" lon="3.32423">
        <ele>734</ele>
        <time>2026-05-28T19:11:45.000Z</time>
      </trkpt>
      <trkpt lat="43.86409" lon="3.32408">
        <ele>733</ele>
        <time>2026-05-28T19:11:58.000Z</time>
      </trkpt>
      <trkpt lat="43.8641" lon="3.32362">
        <ele>732</ele>
        <time>2026-05-28T19:12:36.000Z</time>
      </trkpt>
      <trkpt lat="43.86418" lon="3.32343">
        <ele>732</ele>
        <time>2026-05-28T19:12:54.000Z</time>
      </trkpt>
      <trkpt lat="43.86424" lon="3.32331">
        <ele>733</ele>
        <time>2026-05-28T19:13:16.000Z</time>
      </trkpt>
      <trkpt lat="43.86396" lon="3.32282">
        <ele>734</ele>
        <time>2026-05-28T19:14:18.000Z</time>
      </trkpt>
      <trkpt lat="43.86345" lon="3.32172">
        <ele>740</ele>
        <time>2026-05-28T19:17:08.000Z</time>
      </trkpt>
      <trkpt lat="43.86346" lon="3.32126">
        <ele>745</ele>
        <time>2026-05-28T19:18:37.000Z</time>
      </trkpt>
      <trkpt lat="43.86351" lon="3.32095">
        <ele>747</ele>
        <time>2026-05-28T19:19:24.000Z</time>
      </trkpt>
      <trkpt lat="43.86338" lon="3.32064">
        <ele>749</ele>
        <time>2026-05-28T19:20:14.000Z</time>
      </trkpt>
      <trkpt lat="43.86345" lon="3.32038">
        <ele>749</ele>
        <time>2026-05-28T19:20:37.000Z</time>
      </trkpt>
      <trkpt lat="43.86346" lon="3.31969">
        <ele>749</ele>
        <time>2026-05-28T19:21:33.000Z</time>
      </trkpt>
      <trkpt lat="43.86356" lon="3.31955">
        <ele>749</ele>
        <time>2026-05-28T19:21:50.000Z</time>
      </trkpt>
      <trkpt lat="43.86367" lon="3.31947">
        <ele>751</ele>
        <time>2026-05-28T19:22:25.000Z</time>
      </trkpt>
      <trkpt lat="43.86406" lon="3.31864">
        <ele>750</ele>
        <time>2026-05-28T19:23:47.000Z</time>
      </trkpt>
      <trkpt lat="43.86418" lon="3.31834">
        <ele>749</ele>
        <time>2026-05-28T19:24:15.000Z</time>
      </trkpt>
      <trkpt lat="43.86417" lon="3.31827">
        <ele>749</ele>
        <time>2026-05-28T19:24:21.000Z</time>
      </trkpt>
      <trkpt lat="43.86469" lon="3.31751">
        <ele>750</ele>
        <time>2026-05-28T19:25:58.000Z</time>
      </trkpt>
      <trkpt lat="43.86474" lon="3.3173">
        <ele>746</ele>
        <time>2026-05-28T19:26:17.000Z</time>
      </trkpt>
      <trkpt lat="43.86488" lon="3.31698">
        <ele>745</ele>
        <time>2026-05-28T19:26:47.000Z</time>
      </trkpt>
      <trkpt lat="43.86525" lon="3.31658">
        <ele>740</ele>
        <time>2026-05-28T19:27:42.000Z</time>
      </trkpt>
      <trkpt lat="43.86527" lon="3.31646">
        <ele>739</ele>
        <time>2026-05-28T19:27:52.000Z</time>
      </trkpt>
      <trkpt lat="43.86523" lon="3.31627">
        <ele>739</ele>
        <time>2026-05-28T19:28:08.000Z</time>
      </trkpt>
      <trkpt lat="43.86536" lon="3.31614">
        <ele>738</ele>
        <time>2026-05-28T19:28:26.000Z</time>
      </trkpt>
      <trkpt lat="43.86554" lon="3.31614">
        <ele>738</ele>
        <time>2026-05-28T19:28:47.000Z</time>
      </trkpt>
      <trkpt lat="43.8683" lon="3.31521">
        <ele>728</ele>
        <time>2026-05-28T19:34:12.000Z</time>
      </trkpt>
      <trkpt lat="43.86892" lon="3.31488">
        <ele>727</ele>
        <time>2026-05-28T19:35:28.000Z</time>
      </trkpt>
      <trkpt lat="43.86912" lon="3.31477">
        <ele>728</ele>
        <time>2026-05-28T19:36:03.000Z</time>
      </trkpt>
      <trkpt lat="43.86916" lon="3.31568">
        <ele>726</ele>
        <time>2026-05-28T19:37:19.000Z</time>
      </trkpt>
      <trkpt lat="43.86914" lon="3.31589">
        <ele>727</ele>
        <time>2026-05-28T19:37:47.000Z</time>
      </trkpt>
      <trkpt lat="43.8692" lon="3.31626">
        <ele>729</ele>
        <time>2026-05-28T19:38:39.000Z</time>
      </trkpt>
      <trkpt lat="43.86935" lon="3.31624">
        <ele>732</ele>
        <time>2026-05-28T19:39:27.000Z</time>
      </trkpt>
      <trkpt lat="43.86972" lon="3.31648">
        <ele>731</ele>
        <time>2026-05-28T19:40:14.000Z</time>
      </trkpt>
      <trkpt lat="43.86983" lon="3.31652">
        <ele>731</ele>
        <time>2026-05-28T19:40:27.000Z</time>
      </trkpt>
      <trkpt lat="43.86988" lon="3.31662">
        <ele>733</ele>
        <time>2026-05-28T19:40:57.000Z</time>
      </trkpt>
      <trkpt lat="43.86995" lon="3.31664">
        <ele>732</ele>
        <time>2026-05-28T19:41:06.000Z</time>
      </trkpt>
      <trkpt lat="43.87003" lon="3.31677">
        <ele>732</ele>
        <time>2026-05-28T19:41:19.000Z</time>
      </trkpt>
      <trkpt lat="43.87051" lon="3.31646">
        <ele>730</ele>
        <time>2026-05-28T19:42:20.000Z</time>
      </trkpt>
      <trkpt lat="43.87062" lon="3.31632">
        <ele>730</ele>
        <time>2026-05-28T19:42:37.000Z</time>
      </trkpt>
      <trkpt lat="43.87107" lon="3.31612">
        <ele>731</ele>
        <time>2026-05-28T19:43:42.000Z</time>
      </trkpt>
      <trkpt lat="43.87116" lon="3.31646">
        <ele>730</ele>
        <time>2026-05-28T19:44:12.000Z</time>
      </trkpt>
      <trkpt lat="43.87142" lon="3.31659">
        <ele>729</ele>
        <time>2026-05-28T19:44:44.000Z</time>
      </trkpt>
      <trkpt lat="43.87163" lon="3.31648">
        <ele>731</ele>
        <time>2026-05-28T19:45:31.000Z</time>
      </trkpt>
      <trkpt lat="43.87182" lon="3.31652">
        <ele>731</ele>
        <time>2026-05-28T19:45:53.000Z</time>
      </trkpt>
      <trkpt lat="43.87202" lon="3.31647">
        <ele>731</ele>
        <time>2026-05-28T19:46:16.000Z</time>
      </trkpt>
      <trkpt lat="43.87228" lon="3.31652">
        <ele>731</ele>
        <time>2026-05-28T19:46:46.000Z</time>
      </trkpt>
      <trkpt lat="43.87249" lon="3.31639">
        <ele>733</ele>
        <time>2026-05-28T19:47:33.000Z</time>
      </trkpt>
      <trkpt lat="43.87267" lon="3.31635">
        <ele>733</ele>
        <time>2026-05-28T19:47:54.000Z</time>
      </trkpt>
      <trkpt lat="43.87358" lon="3.31644">
        <ele>735</ele>
        <time>2026-05-28T19:49:59.000Z</time>
      </trkpt>
      <trkpt lat="43.87409" lon="3.31641">
        <ele>738</ele>
        <time>2026-05-28T19:51:29.000Z</time>
      </trkpt>
      <trkpt lat="43.87441" lon="3.31633">
        <ele>739</ele>
        <time>2026-05-28T19:52:16.000Z</time>
      </trkpt>
      <trkpt lat="43.87447" lon="3.31641">
        <ele>740</ele>
        <time>2026-05-28T19:52:36.000Z</time>
      </trkpt>
      <trkpt lat="43.87468" lon="3.31644">
        <ele>740</ele>
        <time>2026-05-28T19:53:00.000Z</time>
      </trkpt>
      <trkpt lat="43.87501" lon="3.31641">
        <ele>741</ele>
        <time>2026-05-28T19:53:48.000Z</time>
      </trkpt>
      <trkpt lat="43.87528" lon="3.31627">
        <ele>741</ele>
        <time>2026-05-28T19:54:21.000Z</time>
      </trkpt>
      <trkpt lat="43.87561" lon="3.3163">
        <ele>740</ele>
        <time>2026-05-28T19:54:59.000Z</time>
      </trkpt>
      <trkpt lat="43.87577" lon="3.31636">
        <ele>740</ele>
        <time>2026-05-28T19:55:18.000Z</time>
      </trkpt>
      <trkpt lat="43.87586" lon="3.31654">
        <ele>741</ele>
        <time>2026-05-28T19:55:47.000Z</time>
      </trkpt>
      <trkpt lat="43.8761" lon="3.31682">
        <ele>741</ele>
        <time>2026-05-28T19:56:23.000Z</time>
      </trkpt>
      <trkpt lat="43.87648" lon="3.31708">
        <ele>743</ele>
        <time>2026-05-28T19:57:32.000Z</time>
      </trkpt>
      <trkpt lat="43.87698" lon="3.31715">
        <ele>746</ele>
        <time>2026-05-28T19:59:00.000Z</time>
      </trkpt>
      <trkpt lat="43.87774" lon="3.31744">
        <ele>749</ele>
        <time>2026-05-28T20:01:01.000Z</time>
      </trkpt>
      <trkpt lat="43.87808" lon="3.31727">
        <ele>749</ele>
        <time>2026-05-28T20:01:41.000Z</time>
      </trkpt>
      <trkpt lat="43.87826" lon="3.31727">
        <ele>749</ele>
        <time>2026-05-28T20:02:02.000Z</time>
      </trkpt>
      <trkpt lat="43.87852" lon="3.31729">
        <ele>750</ele>
        <time>2026-05-28T20:02:42.000Z</time>
      </trkpt>
      <trkpt lat="43.87915" lon="3.31755">
        <ele>750</ele>
        <time>2026-05-28T20:03:58.000Z</time>
      </trkpt>
      <trkpt lat="43.87958" lon="3.31751">
        <ele>751</ele>
        <time>2026-05-28T20:04:58.000Z</time>
      </trkpt>
      <trkpt lat="43.88042" lon="3.31771">
        <ele>753</ele>
        <time>2026-05-28T20:06:55.000Z</time>
      </trkpt>
      <trkpt lat="43.88113" lon="3.31777">
        <ele>755</ele>
        <time>2026-05-28T20:08:37.000Z</time>
      </trkpt>
      <trkpt lat="43.88171" lon="3.31801">
        <ele>754</ele>
        <time>2026-05-28T20:09:47.000Z</time>
      </trkpt>
      <trkpt lat="43.88196" lon="3.31805">
        <ele>755</ele>
        <time>2026-05-28T20:10:26.000Z</time>
      </trkpt>
      <trkpt lat="43.88279" lon="3.31773">
        <ele>755</ele>
        <time>2026-05-28T20:12:04.000Z</time>
      </trkpt>
      <trkpt lat="43.88368" lon="3.31717">
        <ele>757</ele>
        <time>2026-05-28T20:14:16.000Z</time>
      </trkpt>
      <trkpt lat="43.88387" lon="3.31712">
        <ele>758</ele>
        <time>2026-05-28T20:14:49.000Z</time>
      </trkpt>
      <trkpt lat="43.88428" lon="3.31706">
        <ele>758</ele>
        <time>2026-05-28T20:15:36.000Z</time>
      </trkpt>
      <trkpt lat="43.88502" lon="3.31712">
        <ele>759</ele>
        <time>2026-05-28T20:17:12.000Z</time>
      </trkpt>
      <trkpt lat="43.88551" lon="3.31705">
        <ele>760</ele>
        <time>2026-05-28T20:18:18.000Z</time>
      </trkpt>
      <trkpt lat="43.88606" lon="3.31691">
        <ele>763</ele>
        <time>2026-05-28T20:19:53.000Z</time>
      </trkpt>
      <trkpt lat="43.88667" lon="3.3168">
        <ele>765</ele>
        <time>2026-05-28T20:21:24.000Z</time>
      </trkpt>
      <trkpt lat="43.88706" lon="3.31667">
        <ele>766</ele>
        <time>2026-05-28T20:22:20.000Z</time>
      </trkpt>
      <trkpt lat="43.88793" lon="3.31653">
        <ele>768</ele>
        <time>2026-05-28T20:24:21.000Z</time>
      </trkpt>
      <trkpt lat="43.88816" lon="3.31652">
        <ele>770</ele>
        <time>2026-05-28T20:25:08.000Z</time>
      </trkpt>
      <trkpt lat="43.88902" lon="3.3163">
        <ele>778</ele>
        <time>2026-05-28T20:28:10.000Z</time>
      </trkpt>
      <trkpt lat="43.88965" lon="3.31628">
        <ele>784</ele>
        <time>2026-05-28T20:30:24.000Z</time>
      </trkpt>
      <trkpt lat="43.89033" lon="3.31612">
        <ele>795</ele>
        <time>2026-05-28T20:33:37.000Z</time>
      </trkpt>
      <trkpt lat="43.89064" lon="3.31608">
        <ele>800</ele>
        <time>2026-05-28T20:35:04.000Z</time>
      </trkpt>
      <trkpt lat="43.89076" lon="3.3161">
        <ele>802</ele>
        <time>2026-05-28T20:35:38.000Z</time>
      </trkpt>
      <trkpt lat="43.89085" lon="3.31625">
        <ele>806</ele>
        <time>2026-05-28T20:36:35.000Z</time>
      </trkpt>
      <trkpt lat="43.89109" lon="3.3161">
        <ele>807</ele>
        <time>2026-05-28T20:37:16.000Z</time>
      </trkpt>
      <trkpt lat="43.8912" lon="3.31613">
        <ele>809</ele>
        <time>2026-05-28T20:37:49.000Z</time>
      </trkpt>
      <trkpt lat="43.89148" lon="3.316">
        <ele>812</ele>
        <time>2026-05-28T20:38:53.000Z</time>
      </trkpt>
      <trkpt lat="43.89172" lon="3.31631">
        <ele>815</ele>
        <time>2026-05-28T20:40:02.000Z</time>
      </trkpt>
    </trkseg>
  </trk>
</gpx>